Mc Adenville, North Carolina
Current Conditions -  °F | °C
As of 6:54 PM on Tuesday 25 Nov 2014 (Local Time) from KAKH Reporting Station
Broken Clouds Broken Clouds  
Wind Chill: 55°   Ceiling: 12000
Heat Index: 55°   Visibility: 10mi
Dew Point: 38°   Wind: 6mph
Humidity: 53%   Direction: 60°ENE
Pressure: 30.04"   Gusts: NA
Location:  35.2538°N, 81.0729°W
Report Text: KAKH 252354Z AUTO 06005KT 10SM BKN120 13/03 A3004 RMK AO2 SLP170 T01280033 10167 20128 51008
Loading
Personal Weather Stations






























Interactive Weather Map New forecast layout! Learn more

10-Day Weather Forecast

Advertisements
Track Severe Weather on mobile